Terminal Aerodrome Forecast
Issued by NWS Nashville, TN

Home | Current Version | Previous Version | Text Only | Print | Product List | Glossary On
Versions: 1 2 3 4 5 6 7 8 9 10 11 12 13 14 15 16 17 18 19 20 21 22 23 24 25 26 27 28 29 30 31 32 33 34 35
000
FTUS44 KOHX 171700
TAFCSV
TAF
KCSV 171732Z 1718/1818 VRB03KT P6SM BKN250
     FM172000 VRB03KT P6SM SCT100 BKN250
     FM180300 00000KT P6SM BKN100 BKN250
     FM181000 00000KT 4SM BR BKN080 BKN250
     FM181400 VRB03KT P6SM SCT080 BKN250=

USA.gov is the U.S. government's official web portal to all federal, state and local government web resources and services.